sensor_id;sensor_type;location;lat;lon;timestamp;pressure;altitude;pressure_sealevel;temperature;humidity
61128;BME280;47013;42.664;23.242;2023-04-10T00:02:06;94097.50;;;6.26;79.36
61128;BME280;47013;42.664;23.242;2023-04-10T00:04:31;94098.66;;;6.25;80.02
61128;BME280;47013;42.664;23.242;2023-04-10T00:06:56;94094.38;;;6.24;80.87
61128;BME280;47013;42.664;23.242;2023-04-10T00:09:22;94095.50;;;6.16;81.52
61128;BME280;47013;42.664;23.242;2023-04-10T00:11:47;94093.13;;;6.11;82.05
61128;BME280;47013;42.664;23.242;2023-04-10T00:14:12;94088.50;;;6.08;80.38
61128;BME280;47013;42.664;23.242;2023-04-10T00:16:37;94094.28;;;6.10;79.30
61128;BME280;47013;42.664;23.242;2023-04-10T00:19:03;94088.56;;;6.15;77.60
61128;BME280;47013;42.664;23.242;2023-04-10T00:21:28;94090.09;;;6.16;75.57
61128;BME280;47013;42.664;23.242;2023-04-10T00:23:53;94093.88;;;6.08;73.53
61128;BME280;47013;42.664;23.242;2023-04-10T00:26:18;94087.03;;;6.14;73.70
61128;BME280;47013;42.664;23.242;2023-04-10T00:28:45;94085.00;;;6.04;72.68
61128;BME280;47013;42.664;23.242;2023-04-10T00:31:10;94080.41;;;6.08;73.56
61128;BME280;47013;42.664;23.242;2023-04-10T00:33:35;94080.00;;;6.02;71.53
61128;BME280;47013;42.664;23.242;2023-04-10T00:36:00;94090.00;;;6.02;70.97
61128;BME280;47013;42.664;23.242;2023-04-10T00:38:26;94080.75;;;5.99;70.11
61128;BME280;47013;42.664;23.242;2023-04-10T00:40:51;94077.72;;;6.08;70.79
61128;BME280;47013;42.664;23.242;2023-04-10T00:43:17;94080.78;;;6.03;70.02
61128;BME280;47013;42.664;23.242;2023-04-10T00:45:44;94081.06;;;5.94;69.74
61128;BME280;47013;42.664;23.242;2023-04-10T00:48:10;94080.41;;;6.04;69.59
61128;BME280;47013;42.664;23.242;2023-04-10T00:50:35;94077.69;;;6.01;69.95
61128;BME280;47013;42.664;23.242;2023-04-10T00:53:01;94088.88;;;6.06;69.51
61128;BME280;47013;42.664;23.242;2023-04-10T00:55:27;94081.53;;;6.03;69.01
61128;BME280;47013;42.664;23.242;2023-04-10T00:57:52;94080.00;;;6.02;69.08
61128;BME280;47013;42.664;23.242;2023-04-10T01:00:19;94077.31;;;6.02;68.43
61128;BME280;47013;42.664;23.242;2023-04-10T01:02:44;94073.47;;;6.03;68.92
61128;BME280;47013;42.664;23.242;2023-04-10T01:05:10;94070.75;;;6.00;68.64
61128;BME280;47013;42.664;23.242;2023-04-10T01:15:47;94066.50;;;5.99;67.50
61128;BME280;47013;42.664;23.242;2023-04-10T01:20:39;94071.94;;;6.06;69.24
61128;BME280;47013;42.664;23.242;2023-04-10T01:30:43;94065.41;;;6.03;74.83
61128;BME280;47013;42.664;23.242;2023-04-10T01:33:10;94070.81;;;6.07;75.83
61128;BME280;47013;42.664;23.242;2023-04-10T01:35:36;94066.16;;;6.00;76.80
61128;BME280;47013;42.664;23.242;2023-04-10T01:38:02;94073.44;;;6.00;76.86
61128;BME280;47013;42.664;23.242;2023-04-10T01:40:29;94068.31;;;5.87;77.13
61128;BME280;47013;42.664;23.242;2023-04-10T01:42:55;94065.91;;;5.75;77.69
61128;BME280;47013;42.664;23.242;2023-04-10T01:45:26;94065.19;;;5.85;77.24
61128;BME280;47013;42.664;23.242;2023-04-10T01:47:52;94064.13;;;5.90;75.84
61128;BME280;47013;42.664;23.242;2023-04-10T01:50:18;94060.19;;;5.84;76.54
61128;BME280;47013;42.664;23.242;2023-04-10T01:52:44;94067.28;;;5.99;76.91
61128;BME280;47013;42.664;23.242;2023-04-10T01:55:09;94063.50;;;6.07;76.29
61128;BME280;47013;42.664;23.242;2023-04-10T01:57:35;94067.34;;;6.10;75.73
61128;BME280;47013;42.664;23.242;2023-04-10T02:00:01;94069.72;;;6.15;74.20
61128;BME280;47013;42.664;23.242;2023-04-10T02:02:30;94068.97;;;6.21;74.16
61128;BME280;47013;42.664;23.242;2023-04-10T02:04:56;94059.75;;;6.19;73.40
61128;BME280;47013;42.664;23.242;2023-04-10T02:10:03;94066.38;;;6.36;73.33
61128;BME280;47013;42.664;23.242;2023-04-10T02:12:35;94067.97;;;6.40;73.83
61128;BME280;47013;42.664;23.242;2023-04-10T02:15:02;94064.50;;;6.40;73.35
61128;BME280;47013;42.664;23.242;2023-04-10T02:17:30;94063.28;;;6.34;73.07
61128;BME280;47013;42.664;23.242;2023-04-10T02:19:58;94061.38;;;6.34;73.20
61128;BME280;47013;42.664;23.242;2023-04-10T02:22:24;94058.28;;;6.29;73.81
61128;BME280;47013;42.664;23.242;2023-04-10T02:24:50;94050.59;;;6.34;74.21
61128;BME280;47013;42.664;23.242;2023-04-10T02:27:15;94049.75;;;6.23;74.65
61128;BME280;47013;42.664;23.242;2023-04-10T02:29:40;94053.25;;;6.27;74.38
61128;BME280;47013;42.664;23.242;2023-04-10T02:32:05;94044.44;;;6.34;74.22
61128;BME280;47013;42.664;23.242;2023-04-10T02:34:31;94037.22;;;6.48;74.04
61128;BME280;47013;42.664;23.242;2023-04-10T02:36:56;94035.66;;;6.44;73.45
61128;BME280;47013;42.664;23.242;2023-04-10T02:39:21;94030.75;;;6.57;73.58
61128;BME280;47013;42.664;23.242;2023-04-10T02:41:47;94027.66;;;6.62;73.36
61128;BME280;47013;42.664;23.242;2023-04-10T02:44:12;94028.81;;;6.61;73.51
61128;BME280;47013;42.664;23.242;2023-04-10T02:46:37;94024.22;;;6.61;73.88
61128;BME280;47013;42.664;23.242;2023-04-10T02:49:03;94027.66;;;6.58;73.90
61128;BME280;47013;42.664;23.242;2023-04-10T02:51:28;94025.75;;;6.59;74.30
61128;BME280;47013;42.664;23.242;2023-04-10T02:53:53;94025.75;;;6.59;74.91
61128;BME280;47013;42.664;23.242;2023-04-10T02:56:18;94013.09;;;6.66;75.11
61128;BME280;47013;42.664;23.242;2023-04-10T02:58:44;94017.72;;;6.69;75.29
61128;BME280;47013;42.664;23.242;2023-04-10T03:01:11;94019.97;;;6.64;75.33
61128;BME280;47013;42.664;23.242;2023-04-10T03:03:37;94018.81;;;6.58;75.30
61128;BME280;47013;42.664;23.242;2023-04-10T03:06:02;94021.50;;;6.58;74.97
61128;BME280;47013;42.664;23.242;2023-04-10T03:08:27;94011.09;;;6.56;75.28
61128;BME280;47013;42.664;23.242;2023-04-10T03:10:54;94016.88;;;6.55;76.17
61128;BME280;47013;42.664;23.242;2023-04-10T03:13:19;94018.44;;;6.63;77.03
61128;BME280;47013;42.664;23.242;2023-04-10T03:15:45;94017.28;;;6.64;78.25
61128;BME280;47013;42.664;23.242;2023-04-10T03:18:10;94017.28;;;6.60;79.32
61128;BME280;47013;42.664;23.242;2023-04-10T03:20:36;94016.91;;;6.62;79.89
61128;BME280;47013;42.664;23.242;2023-04-10T03:23:03;94019.25;;;6.67;80.32
61128;BME280;47013;42.664;23.242;2023-04-10T03:25:29;94027.72;;;6.69;80.69
61128;BME280;47013;42.664;23.242;2023-04-10T03:27:55;94028.88;;;6.64;81.02
61128;BME280;47013;42.664;23.242;2023-04-10T03:30:21;94023.81;;;6.63;81.23
61128;BME280;47013;42.664;23.242;2023-04-10T03:32:46;94027.66;;;6.62;81.55
61128;BME280;47013;42.664;23.242;2023-04-10T03:35:11;94021.56;;;6.65;81.28
61128;BME280;47013;42.664;23.242;2023-04-10T03:37:37;94026.19;;;6.75;81.10
61128;BME280;47013;42.664;23.242;2023-04-10T03:40:04;94030.47;;;6.83;80.25
61128;BME280;47013;42.664;23.242;2023-04-10T03:42:30;94034.34;;;6.89;80.71
61128;BME280;47013;42.664;23.242;2023-04-10T03:44:55;94034.38;;;6.93;81.16
61128;BME280;47013;42.664;23.242;2023-04-10T03:47:20;94040.91;;;6.95;81.88
61128;BME280;47013;42.664;23.242;2023-04-10T03:49:46;94034.00;;;6.98;82.23
61128;BME280;47013;42.664;23.242;2023-04-10T03:52:11;94034.38;;;7.00;82.66
61128;BME280;47013;42.664;23.242;2023-04-10T03:54:36;94034.78;;;7.02;82.85
61128;BME280;47013;42.664;23.242;2023-04-10T03:57:01;94041.34;;;7.04;82.92
61128;BME280;47013;42.664;23.242;2023-04-10T03:59:27;94049.44;;;7.04;83.37
61128;BME280;47013;42.664;23.242;2023-04-10T04:01:52;94044.44;;;7.06;83.63
61128;BME280;47013;42.664;23.242;2023-04-10T04:04:17;94048.28;;;7.05;83.67
61128;BME280;47013;42.664;23.242;2023-04-10T04:06:43;94050.59;;;7.07;83.69
61128;BME280;47013;42.664;23.242;2023-04-10T04:09:08;94058.69;;;7.07;83.70
61128;BME280;47013;42.664;23.242;2023-04-10T04:11:33;94058.69;;;7.07;84.16
61128;BME280;47013;42.664;23.242;2023-04-10T04:13:58;94057.91;;;7.10;84.02
61128;BME280;47013;42.664;23.242;2023-04-10T04:16:24;94059.84;;;7.09;83.71
61128;BME280;47013;42.664;23.242;2023-04-10T04:18:50;94064.06;;;7.07;84.23
61128;BME280;47013;42.664;23.242;2023-04-10T04:21:15;94059.06;;;7.05;84.18
61128;BME280;47013;42.664;23.242;2023-04-10T04:23:41;94058.28;;;7.05;84.73
61128;BME280;47013;42.664;23.242;2023-04-10T04:26:06;94056.34;;;6.98;84.92
61128;BME280;47013;42.664;23.242;2023-04-10T04:28:31;94062.50;;;7.02;85.08
61128;BME280;47013;42.664;23.242;2023-04-10T04:30:56;94065.63;;;7.04;84.90
61128;BME280;47013;42.664;23.242;2023-04-10T04:33:22;94064.06;;;7.03;84.64
61128;BME280;47013;42.664;23.242;2023-04-10T04:35:48;94060.63;;;7.06;85.00
61128;BME280;47013;42.664;23.242;2023-04-10T04:38:13;94061.38;;;7.03;85.27
61128;BME280;47013;42.664;23.242;2023-04-10T04:40:40;94067.16;;;7.05;84.87
61128;BME280;47013;42.664;23.242;2023-04-10T04:43:05;94067.53;;;7.07;85.25
61128;BME280;47013;42.664;23.242;2023-04-10T04:45:31;94072.16;;;7.10;85.01
61128;BME280;47013;42.664;23.242;2023-04-10T04:47:56;94070.63;;;7.13;84.99
61128;BME280;47013;42.664;23.242;2023-04-10T04:50:21;94068.31;;;7.15;84.47
61128;BME280;47013;42.664;23.242;2023-04-10T04:52:46;94073.38;;;7.17;84.88
61128;BME280;47013;42.664;23.242;2023-04-10T04:55:12;94077.94;;;7.13;84.83
61128;BME280;47013;42.664;23.242;2023-04-10T04:57:37;94079.44;;;7.03;85.00
61128;BME280;47013;42.664;23.242;2023-04-10T05:00:02;94075.25;;;7.05;84.94
61128;BME280;47013;42.664;23.242;2023-04-10T05:02:28;94081.03;;;7.11;85.18
61128;BME280;47013;42.664;23.242;2023-04-10T05:04:53;94082.56;;;7.08;85.12
61128;BME280;47013;42.664;23.242;2023-04-10T05:07:18;94085.22;;;6.98;85.54
61128;BME280;47013;42.664;23.242;2023-04-10T05:09:43;94089.09;;;7.04;84.74
61128;BME280;47013;42.664;23.242;2023-04-10T05:12:09;94082.56;;;7.08;85.25
61128;BME280;47013;42.664;23.242;2023-04-10T05:14:34;94079.88;;;7.12;85.31
61128;BME280;47013;42.664;23.242;2023-04-10T05:17:00;94076.03;;;7.13;85.42
61128;BME280;47013;42.664;23.242;2023-04-10T05:19:25;94079.88;;;7.12;85.64
61128;BME280;47013;42.664;23.242;2023-04-10T05:21:50;94085.72;;;7.25;85.44
61128;BME280;47013;42.664;23.242;2023-04-10T05:24:15;94088.44;;;7.32;84.74
61128;BME280;47013;42.664;23.242;2023-04-10T05:26:41;94080.72;;;7.30;83.81
61128;BME280;47013;42.664;23.242;2023-04-10T05:29:06;94079.50;;;7.14;84.10
61128;BME280;47013;42.664;23.242;2023-04-10T05:31:31;94080.69;;;7.16;84.49
61128;BME280;47013;42.664;23.242;2023-04-10T05:33:57;94088.41;;;7.21;84.28
61128;BME280;47013;42.664;23.242;2023-04-10T05:36:22;94092.63;;;7.19;82.30
61128;BME280;47013;42.664;23.242;2023-04-10T05:38:47;94083.38;;;7.23;82.53
61128;BME280;47013;42.664;23.242;2023-04-10T05:41:12;94083.00;;;7.21;80.38
61128;BME280;47013;42.664;23.242;2023-04-10T05:43:38;94084.53;;;7.19;81.04
61128;BME280;47013;42.664;23.242;2023-04-10T05:46:03;94086.47;;;7.22;82.51
61128;BME280;47013;42.664;23.242;2023-04-10T05:48:28;94086.13;;;7.30;83.55
61128;BME280;47013;42.664;23.242;2023-04-10T05:50:54;94084.97;;;7.42;83.56
61128;BME280;47013;42.664;23.242;2023-04-10T05:53:19;94089.66;;;7.63;88.33
61128;BME280;47013;42.664;23.242;2023-04-10T05:55:48;94089.66;;;7.66;83.75
61128;BME280;47013;42.664;23.242;2023-04-10T05:58:15;94090.44;;;7.63;82.48
61128;BME280;47013;42.664;23.242;2023-04-10T06:00:40;94096.59;;;7.64;82.34
61128;BME280;47013;42.664;23.242;2023-04-10T06:03:05;94101.22;;;7.63;83.08
61128;BME280;47013;42.664;23.242;2023-04-10T06:05:31;94094.31;;;7.69;83.96
61128;BME280;47013;42.664;23.242;2023-04-10T06:07:56;94097.78;;;7.77;83.86
61128;BME280;47013;42.664;23.242;2023-04-10T06:10:21;94092.78;;;7.79;84.12
61128;BME280;47013;42.664;23.242;2023-04-10T06:12:46;94090.88;;;7.87;83.81
61128;BME280;47013;42.664;23.242;2023-04-10T06:15:12;94100.91;;;7.90;83.45
61128;BME280;47013;42.664;23.242;2023-04-10T06:17:40;94097.84;;;7.95;84.05
61128;BME280;47013;42.664;23.242;2023-04-10T06:20:06;94092.44;;;7.95;83.38
61128;BME280;47013;42.664;23.242;2023-04-10T06:22:32;94097.41;;;7.93;82.38
61128;BME280;47013;42.664;23.242;2023-04-10T06:24:57;94095.88;;;7.92;82.84
61128;BME280;47013;42.664;23.242;2023-04-10T06:27:23;94093.56;;;7.83;83.15
61128;BME280;47013;42.664;23.242;2023-04-10T06:29:48;94089.31;;;7.79;82.93
61128;BME280;47013;42.664;23.242;2023-04-10T06:32:13;94087.03;;;7.84;82.83
61128;BME280;47013;42.664;23.242;2023-04-10T06:34:38;94090.50;;;7.85;83.30
61128;BME280;47013;42.664;23.242;2023-04-10T06:37:03;94083.91;;;7.93;83.57
61128;BME280;47013;42.664;23.242;2023-04-10T06:39:29;94091.28;;;8.03;83.55
61128;BME280;47013;42.664;23.242;2023-04-10T06:41:54;94085.47;;;8.01;82.16
61128;BME280;47013;42.664;23.242;2023-04-10T06:44:20;94073.53;;;7.98;82.46
61128;BME280;47013;42.664;23.242;2023-04-10T06:46:45;94081.63;;;7.91;80.68
61128;BME280;47013;42.664;23.242;2023-04-10T06:49:10;94078.50;;;7.72;80.69
61128;BME280;47013;42.664;23.242;2023-04-10T06:51:35;94088.16;;;7.76;80.55
61128;BME280;47013;42.664;23.242;2023-04-10T06:54:01;94092.81;;;7.86;79.24
61128;BME280;47013;42.664;23.242;2023-04-10T06:56:26;94093.88;;;7.53;79.34
61128;BME280;47013;42.664;23.242;2023-04-10T06:58:52;94095.44;;;7.58;79.93
61128;BME280;47013;42.664;23.242;2023-04-10T07:01:17;94102.81;;;7.72;79.50
61128;BME280;47013;42.664;23.242;2023-04-10T07:03:43;94095.47;;;7.72;78.99
61128;BME280;47013;42.664;23.242;2023-04-10T07:06:09;94101.28;;;7.81;78.51
61128;BME280;47013;42.664;23.242;2023-04-10T07:08:34;94100.88;;;7.79;77.71
61128;BME280;47013;42.664;23.242;2023-04-10T07:10:59;94100.88;;;7.76;76.09
61128;BME280;47013;42.664;23.242;2023-04-10T07:13:25;94098.19;;;7.86;76.06
61128;BME280;47013;42.664;23.242;2023-04-10T07:15:50;94102.44;;;7.84;74.64
61128;BME280;47013;42.664;23.242;2023-04-10T07:18:15;94089.69;;;7.70;74.27
61128;BME280;47013;42.664;23.242;2023-04-10T07:20:41;94091.25;;;7.78;74.55
61128;BME280;47013;42.664;23.242;2023-04-10T07:23:06;94096.66;;;7.82;74.14
61128;BME280;47013;42.664;23.242;2023-04-10T07:25:32;94097.03;;;7.73;73.88
61128;BME280;47013;42.664;23.242;2023-04-10T07:27:57;94099.75;;;7.84;73.84
61128;BME280;47013;42.664;23.242;2023-04-10T07:30:22;94094.72;;;7.75;74.26
61128;BME280;47013;42.664;23.242;2023-04-10T07:32:48;94096.25;;;7.69;74.03
61128;BME280;47013;42.664;23.242;2023-04-10T07:35:13;94102.41;;;7.69;74.00
61128;BME280;47013;42.664;23.242;2023-04-10T07:37:38;94098.94;;;7.69;73.44
61128;BME280;47013;42.664;23.242;2023-04-10T07:40:05;94100.06;;;7.64;73.66
61128;BME280;47013;42.664;23.242;2023-04-10T07:42:31;94104.34;;;7.69;74.38
61128;BME280;47013;42.664;23.242;2023-04-10T07:44:56;94102.03;;;7.78;73.38
61128;BME280;47013;42.664;23.242;2023-04-10T07:47:24;94103.22;;;7.84;73.25
61128;BME280;47013;42.664;23.242;2023-04-10T07:49:49;94100.50;;;7.88;73.53
61128;BME280;47013;42.664;23.242;2023-04-10T07:52:14;94103.59;;;7.93;73.09
61128;BME280;47013;42.664;23.242;2023-04-10T07:54:40;94096.66;;;8.07;72.66
61128;BME280;47013;42.664;23.242;2023-04-10T07:57:05;94104.78;;;8.24;72.04
61128;BME280;47013;42.664;23.242;2023-04-10T07:59:31;94101.34;;;8.38;71.39
61128;BME280;47013;42.664;23.242;2023-04-10T08:01:56;94098.25;;;8.40;70.83
61128;BME280;47013;42.664;23.242;2023-04-10T08:04:21;94103.28;;;8.48;69.96
61128;BME280;47013;42.664;23.242;2023-04-10T08:06:47;94098.63;;;8.49;69.87
61128;BME280;47013;42.664;23.242;2023-04-10T08:09:13;94100.56;;;8.45;70.38
61128;BME280;47013;42.664;23.242;2023-04-10T08:11:39;94098.63;;;8.45;69.36
61128;BME280;47013;42.664;23.242;2023-04-10T08:14:04;94100.91;;;8.29;69.94
61128;BME280;47013;42.664;23.242;2023-04-10T08:16:31;94095.16;;;8.38;69.14
61128;BME280;47013;42.664;23.242;2023-04-10T08:18:57;94091.69;;;8.41;69.21
61128;BME280;47013;42.664;23.242;2023-04-10T08:21:23;94097.06;;;8.30;69.36
61128;BME280;47013;42.664;23.242;2023-04-10T08:23:50;94098.22;;;8.22;70.19
61128;BME280;47013;42.664;23.242;2023-04-10T08:26:16;94096.28;;;8.29;70.61
61128;BME280;47013;42.664;23.242;2023-04-10T08:28:48;94098.97;;;8.33;69.60
61128;BME280;47013;42.664;23.242;2023-04-10T08:31:15;94091.69;;;8.44;70.39
61128;BME280;47013;42.664;23.242;2023-04-10T08:33:41;94094.75;;;8.53;70.07
61128;BME280;47013;42.664;23.242;2023-04-10T08:36:07;94090.88;;;8.58;69.94
61128;BME280;47013;42.664;23.242;2023-04-10T08:38:33;94091.66;;;8.58;68.86
61128;BME280;47013;42.664;23.242;2023-04-10T08:40:58;94097.84;;;8.66;69.28
61128;BME280;47013;42.664;23.242;2023-04-10T08:43:24;94091.28;;;8.64;69.00
61128;BME280;47013;42.664;23.242;2023-04-10T08:45:50;94096.66;;;8.71;68.80
61128;BME280;47013;42.664;23.242;2023-04-10T08:48:16;94085.47;;;8.76;68.97
61128;BME280;47013;42.664;23.242;2023-04-10T08:50:42;94094.31;;;8.87;68.51
61128;BME280;47013;42.664;23.242;2023-04-10T08:53:12;94088.50;;;8.99;68.83
61128;BME280;47013;42.664;23.242;2023-04-10T08:55:38;94090.84;;;8.90;68.08
61128;BME280;47013;42.664;23.242;2023-04-10T08:58:04;94089.69;;;8.91;67.47
61128;BME280;47013;42.664;23.242;2023-04-10T09:00:32;94088.09;;;9.01;67.48
61128;BME280;47013;42.664;23.242;2023-04-10T09:02:58;94085.41;;;8.94;67.57
61128;BME280;47013;42.664;23.242;2023-04-10T09:05:24;94080.38;;;9.03;68.27
61128;BME280;47013;42.664;23.242;2023-04-10T09:07:50;94079.19;;;9.07;68.38
61128;BME280;47013;42.664;23.242;2023-04-10T09:10:16;94082.66;;;9.11;67.50
61128;BME280;47013;42.664;23.242;2023-04-10T09:12:44;94078.41;;;9.14;66.63
61128;BME280;47013;42.664;23.242;2023-04-10T09:15:10;94077.63;;;9.13;66.80
61128;BME280;47013;42.664;23.242;2023-04-10T09:17:36;94076.44;;;9.22;67.71
61128;BME280;47013;42.664;23.242;2023-04-10T09:20:01;94067.84;;;9.37;67.04
61128;BME280;47013;42.664;23.242;2023-04-10T09:22:30;94075.97;;;9.41;66.13
61128;BME280;47013;42.664;23.242;2023-04-10T09:24:56;94070.66;;;9.20;65.51
61128;BME280;47013;42.664;23.242;2023-04-10T09:27:41;94067.94;;;9.20;66.40
61128;BME280;47013;42.664;23.242;2023-04-10T09:30:06;94061.69;;;9.33;65.98
61128;BME280;47013;42.664;23.242;2023-04-10T09:35:03;94061.22;;;9.53;64.94
61128;BME280;47013;42.664;23.242;2023-04-10T09:37:30;94063.47;;;9.61;64.21
61128;BME280;47013;42.664;23.242;2023-04-10T09:39:56;94064.66;;;9.64;64.30
61128;BME280;47013;42.664;23.242;2023-04-10T09:42:34;94061.16;;;9.60;63.56
61128;BME280;47013;42.664;23.242;2023-04-10T09:45:01;94063.13;;;9.56;63.05
61128;BME280;47013;42.664;23.242;2023-04-10T09:47:26;94067.75;;;9.59;62.91
61128;BME280;47013;42.664;23.242;2023-04-10T09:49:53;94066.09;;;9.75;64.64
61128;BME280;47013;42.664;23.242;2023-04-10T09:52:21;94071.47;;;9.83;63.80
61128;BME280;47013;42.664;23.242;2023-04-10T09:54:47;94064.63;;;9.67;62.76
61128;BME280;47013;42.664;23.242;2023-04-10T09:57:14;94070.38;;;9.73;62.99
61128;BME280;47013;42.664;23.242;2023-04-10T09:59:40;94054.78;;;9.91;63.34
61128;BME280;47013;42.664;23.242;2023-04-10T10:02:08;94066.75;;;9.94;64.15
61128;BME280;47013;42.664;23.242;2023-04-10T10:04:35;94072.97;;;9.87;62.87
61128;BME280;47013;42.664;23.242;2023-04-10T10:07:00;94065.34;;;9.71;63.38
61128;BME280;47013;42.664;23.242;2023-04-10T10:09:26;94059.22;;;9.64;62.71
61128;BME280;47013;42.664;23.242;2023-04-10T10:11:52;94056.44;;;9.74;62.98
61128;BME280;47013;42.664;23.242;2023-04-10T10:14:19;94058.88;;;10.14;61.10
61128;BME280;47013;42.664;23.242;2023-04-10T10:16:46;94049.25;;;10.57;62.20
61128;BME280;47013;42.664;23.242;2023-04-10T10:19:17;94044.41;;;10.76;60.30
61128;BME280;47013;42.664;23.242;2023-04-10T10:21:46;94057.38;;;10.95;60.63
61128;BME280;47013;42.664;23.242;2023-04-10T10:24:11;94039.06;;;11.03;58.97
61128;BME280;47013;42.664;23.242;2023-04-10T10:26:40;94043.72;;;11.02;58.39
61128;BME280;47013;42.664;23.242;2023-04-10T10:29:06;94042.72;;;10.89;58.87
61128;BME280;47013;42.664;23.242;2023-04-10T10:31:37;94042.34;;;10.87;58.54
61128;BME280;47013;42.664;23.242;2023-04-10T10:34:03;94042.81;;;10.78;57.04
61128;BME280;47013;42.664;23.242;2023-04-10T10:36:31;94036.34;;;10.69;56.97
61128;BME280;47013;42.664;23.242;2023-04-10T10:38:59;94034.41;;;10.69;57.70
61128;BME280;47013;42.664;23.242;2023-04-10T10:41:29;94031.72;;;10.66;58.40
61128;BME280;47013;42.664;23.242;2023-04-10T10:46:33;94027.25;;;10.48;57.64
61128;BME280;47013;42.664;23.242;2023-04-10T10:48:59;94021.94;;;10.75;58.17
61128;BME280;47013;42.664;23.242;2023-04-10T10:56:54;94011.41;;;11.15;55.68
61128;BME280;47013;42.664;23.242;2023-04-10T11:02:13;94009.44;;;11.15;54.91
61128;BME280;47013;42.664;23.242;2023-04-10T11:04:41;93997.31;;;10.93;54.59
61128;BME280;47013;42.664;23.242;2023-04-10T11:07:08;93998.22;;;10.83;56.19
61128;BME280;47013;42.664;23.242;2023-04-10T11:09:49;93999.72;;;10.87;55.59
61128;BME280;47013;42.664;23.242;2023-04-10T11:12:16;93995.59;;;10.76;56.82
61128;BME280;47013;42.664;23.242;2023-04-10T11:14:42;93992.31;;;10.57;56.43
61128;BME280;47013;42.664;23.242;2023-04-10T11:17:08;93994.66;;;10.55;57.28
61128;BME280;47013;42.664;23.242;2023-04-10T11:20:06;93990.09;;;10.45;57.04
61128;BME280;47013;42.664;23.242;2023-04-10T11:22:28;93991.91;;;10.59;55.73
61128;BME280;47013;42.664;23.242;2023-04-10T11:24:54;93986.78;;;10.68;54.54
61128;BME280;47013;42.664;23.242;2023-04-10T11:30:24;93977.94;;;10.95;54.66
61128;BME280;47013;42.664;23.242;2023-04-10T11:32:49;93962.84;;;11.51;53.32
61128;BME280;47013;42.664;23.242;2023-04-10T11:35:17;93969.06;;;11.75;50.55
61128;BME280;47013;42.664;23.242;2023-04-10T11:37:42;93963.28;;;11.73;51.79
61128;BME280;47013;42.664;23.242;2023-04-10T11:40:08;93965.31;;;11.11;54.42
61128;BME280;47013;42.664;23.242;2023-04-10T11:42:33;93979.09;;;10.93;54.36
61128;BME280;47013;42.664;23.242;2023-04-10T11:44:58;93980.81;;;10.80;55.30
61128;BME280;47013;42.664;23.242;2023-04-10T11:47:24;93973.41;;;10.84;54.47
61128;BME280;47013;42.664;23.242;2023-04-10T11:49:52;93981.88;;;10.52;54.85
61128;BME280;47013;42.664;23.242;2023-04-10T11:52:25;93982.59;;;10.15;56.24
61128;BME280;47013;42.664;23.242;2023-04-10T11:54:51;93977.16;;;10.19;56.68
61128;BME280;47013;42.664;23.242;2023-04-10T11:57:16;93974.81;;;10.24;57.23
61128;BME280;47013;42.664;23.242;2023-04-10T11:59:47;93962.97;;;10.49;57.26
61128;BME280;47013;42.664;23.242;2023-04-10T12:02:13;93968.56;;;10.65;56.47
61128;BME280;47013;42.664;23.242;2023-04-10T12:04:39;93949.34;;;10.86;56.96
61128;BME280;47013;42.664;23.242;2023-04-10T12:07:05;93950.00;;;10.98;56.60
61128;BME280;47013;42.664;23.242;2023-04-10T12:09:31;93948.91;;;10.91;56.81
61128;BME280;47013;42.664;23.242;2023-04-10T12:14:28;93948.16;;;10.57;58.12
61128;BME280;47013;42.664;23.242;2023-04-10T12:16:55;93953.59;;;10.53;60.20
61128;BME280;47013;42.664;23.242;2023-04-10T12:19:21;93958.41;;;10.39;58.87
61128;BME280;47013;42.664;23.242;2023-04-10T12:21:47;93958.19;;;10.22;59.61
61128;BME280;47013;42.664;23.242;2023-04-10T12:24:13;93952.69;;;9.85;60.92
61128;BME280;47013;42.664;23.242;2023-04-10T12:26:58;93957.78;;;9.75;63.26
61128;BME280;47013;42.664;23.242;2023-04-10T12:29:24;93963.41;;;9.47;64.98
61128;BME280;47013;42.664;23.242;2023-04-10T12:31:51;93972.13;;;9.17;68.41
61128;BME280;47013;42.664;23.242;2023-04-10T12:34:17;93992.41;;;8.70;73.15
61128;BME280;47013;42.664;23.242;2023-04-10T12:36:42;93998.28;;;8.47;80.45
61128;BME280;47013;42.664;23.242;2023-04-10T12:39:22;93989.06;;;7.87;83.37
61128;BME280;47013;42.664;23.242;2023-04-10T12:41:47;93997.91;;;7.63;89.52
61128;BME280;47013;42.664;23.242;2023-04-10T12:44:13;93996.38;;;7.48;90.84
61128;BME280;47013;42.664;23.242;2023-04-10T12:46:38;94002.56;;;7.59;94.73
61128;BME280;47013;42.664;23.242;2023-04-10T12:49:22;93999.47;;;7.57;95.60
61128;BME280;47013;42.664;23.242;2023-04-10T12:51:50;93985.19;;;7.67;96.49
61128;BME280;47013;42.664;23.242;2023-04-10T12:57:10;93978.66;;;7.47;93.01
61128;BME280;47013;42.664;23.242;2023-04-10T12:59:49;93975.94;;;7.47;90.33
61128;BME280;47013;42.664;23.242;2023-04-10T13:02:15;93975.16;;;7.53;89.61
61128;BME280;47013;42.664;23.242;2023-04-10T13:04:42;93966.69;;;7.55;86.20
61128;BME280;47013;42.664;23.242;2023-04-10T13:07:07;93968.66;;;7.68;87.06
61128;BME280;47013;42.664;23.242;2023-04-10T13:09:33;93971.72;;;7.81;85.05
61128;BME280;47013;42.664;23.242;2023-04-10T13:11:58;93967.06;;;8.03;88.84
61128;BME280;47013;42.664;23.242;2023-04-10T13:14:23;93972.44;;;8.24;89.22
61128;BME280;47013;42.664;23.242;2023-04-10T13:16:48;93969.31;;;8.33;86.27
61128;BME280;47013;42.664;23.242;2023-04-10T13:19:14;93962.38;;;8.32;84.91
61128;BME280;47013;42.664;23.242;2023-04-10T13:21:39;93975.84;;;8.57;85.55
61128;BME280;47013;42.664;23.242;2023-04-10T13:24:04;93953.41;;;8.71;82.40
61128;BME280;47013;42.664;23.242;2023-04-10T13:26:30;93949.56;;;8.65;77.35
61128;BME280;47013;42.664;23.242;2023-04-10T13:28:55;93957.44;;;9.11;80.40
61128;BME280;47013;42.664;23.242;2023-04-10T13:31:20;93952.84;;;9.63;81.88
61128;BME280;47013;42.664;23.242;2023-04-10T13:33:46;93949.41;;;10.08;80.55
61128;BME280;47013;42.664;23.242;2023-04-10T13:36:12;93951.19;;;10.25;73.11